sensor_id;sensor_type;location;lat;lon;timestamp;P1;durP1;ratioP1;P2;durP2;ratioP2
13439;SDS011;6792;57.698;11.946;2023-06-26T00:00:09;3.58;;;2.87;;
13439;SDS011;6792;57.698;11.946;2023-06-26T00:05:14;2.72;;;2.35;;
13439;SDS011;6792;57.698;11.946;2023-06-26T00:07:43;3.35;;;2.10;;
13439;SDS011;6792;57.698;11.946;2023-06-26T00:10:13;2.62;;;2.37;;
13439;SDS011;6792;57.698;11.946;2023-06-26T00:12:42;2.22;;;2.02;;
13439;SDS011;6792;57.698;11.946;2023-06-26T00:15:11;3.02;;;2.25;;
13439;SDS011;6792;57.698;11.946;2023-06-26T00:17:41;3.52;;;2.20;;
13439;SDS011;6792;57.698;11.946;2023-06-26T00:20:11;2.80;;;2.60;;
13439;SDS011;6792;57.698;11.946;2023-06-26T00:22:42;2.30;;;1.82;;
13439;SDS011;6792;57.698;11.946;2023-06-26T00:25:12;2.70;;;2.40;;
13439;SDS011;6792;57.698;11.946;2023-06-26T00:27:42;2.70;;;2.50;;
13439;SDS011;6792;57.698;11.946;2023-06-26T00:30:12;3.08;;;2.50;;
13439;SDS011;6792;57.698;11.946;2023-06-26T00:32:41;3.92;;;2.22;;
13439;SDS011;6792;57.698;11.946;2023-06-26T00:35:11;5.33;;;2.70;;
13439;SDS011;6792;57.698;11.946;2023-06-26T00:37:40;4.62;;;2.65;;
13439;SDS011;6792;57.698;11.946;2023-06-26T00:40:10;5.75;;;2.92;;
13439;SDS011;6792;57.698;11.946;2023-06-26T00:42:40;6.22;;;2.92;;
13439;SDS011;6792;57.698;11.946;2023-06-26T00:45:10;3.72;;;2.80;;
13439;SDS011;6792;57.698;11.946;2023-06-26T00:47:40;2.87;;;2.40;;
13439;SDS011;6792;57.698;11.946;2023-06-26T00:50:09;9.40;;;2.60;;
13439;SDS011;6792;57.698;11.946;2023-06-26T00:52:39;4.83;;;2.37;;
13439;SDS011;6792;57.698;11.946;2023-06-26T00:55:09;2.95;;;2.20;;
13439;SDS011;6792;57.698;11.946;2023-06-26T00:57:38;2.58;;;2.37;;
13439;SDS011;6792;57.698;11.946;2023-06-26T01:00:09;3.80;;;2.37;;
13439;SDS011;6792;57.698;11.946;2023-06-26T01:02:39;3.20;;;2.35;;
13439;SDS011;6792;57.698;11.946;2023-06-26T01:05:09;2.75;;;2.42;;
13439;SDS011;6792;57.698;11.946;2023-06-26T01:07:39;3.87;;;2.58;;
13439;SDS011;6792;57.698;11.946;2023-06-26T01:10:09;3.65;;;2.98;;
13439;SDS011;6792;57.698;11.946;2023-06-26T01:12:38;4.22;;;3.02;;
13439;SDS011;6792;57.698;11.946;2023-06-26T01:15:10;5.25;;;2.70;;
13439;SDS011;6792;57.698;11.946;2023-06-26T01:17:42;2.87;;;2.30;;
13439;SDS011;6792;57.698;11.946;2023-06-26T01:20:13;5.37;;;2.77;;
13439;SDS011;6792;57.698;11.946;2023-06-26T01:22:45;4.85;;;3.05;;
13439;SDS011;6792;57.698;11.946;2023-06-26T01:25:20;3.47;;;2.75;;
13439;SDS011;6792;57.698;11.946;2023-06-26T01:27:51;3.70;;;3.00;;
13439;SDS011;6792;57.698;11.946;2023-06-26T01:30:23;7.62;;;2.80;;
13439;SDS011;6792;57.698;11.946;2023-06-26T01:32:53;4.10;;;2.87;;
13439;SDS011;6792;57.698;11.946;2023-06-26T01:35:22;4.53;;;3.42;;
13439;SDS011;6792;57.698;11.946;2023-06-26T01:37:52;3.05;;;2.77;;
13439;SDS011;6792;57.698;11.946;2023-06-26T01:40:23;3.02;;;2.72;;
13439;SDS011;6792;57.698;11.946;2023-06-26T01:42:52;3.00;;;2.70;;
13439;SDS011;6792;57.698;11.946;2023-06-26T01:45:24;4.60;;;3.25;;
13439;SDS011;6792;57.698;11.946;2023-06-26T01:47:55;4.00;;;2.98;;
13439;SDS011;6792;57.698;11.946;2023-06-26T01:50:28;3.30;;;2.80;;
13439;SDS011;6792;57.698;11.946;2023-06-26T01:52:58;5.87;;;2.67;;
13439;SDS011;6792;57.698;11.946;2023-06-26T01:55:32;3.37;;;3.08;;
13439;SDS011;6792;57.698;11.946;2023-06-26T01:58:03;4.22;;;2.70;;
13439;SDS011;6792;57.698;11.946;2023-06-26T02:00:33;3.30;;;2.60;;
13439;SDS011;6792;57.698;11.946;2023-06-26T02:03:08;4.80;;;2.92;;
13439;SDS011;6792;57.698;11.946;2023-06-26T02:05:37;2.98;;;2.67;;
13439;SDS011;6792;57.698;11.946;2023-06-26T02:08:07;4.58;;;2.75;;
13439;SDS011;6792;57.698;11.946;2023-06-26T02:10:37;3.62;;;2.72;;
13439;SDS011;6792;57.698;11.946;2023-06-26T02:13:06;4.95;;;2.90;;
13439;SDS011;6792;57.698;11.946;2023-06-26T02:15:35;3.83;;;2.42;;
13439;SDS011;6792;57.698;11.946;2023-06-26T02:18:04;3.25;;;2.50;;
13439;SDS011;6792;57.698;11.946;2023-06-26T02:20:34;2.12;;;1.92;;
13439;SDS011;6792;57.698;11.946;2023-06-26T02:23:03;2.95;;;2.65;;
13439;SDS011;6792;57.698;11.946;2023-06-26T02:25:32;3.67;;;2.50;;
13439;SDS011;6792;57.698;11.946;2023-06-26T02:28:01;3.42;;;2.77;;
13439;SDS011;6792;57.698;11.946;2023-06-26T02:30:31;3.08;;;2.72;;
13439;SDS011;6792;57.698;11.946;2023-06-26T02:33:00;2.90;;;2.55;;
13439;SDS011;6792;57.698;11.946;2023-06-26T02:35:30;6.92;;;2.75;;
13439;SDS011;6792;57.698;11.946;2023-06-26T02:38:00;6.83;;;2.60;;
13439;SDS011;6792;57.698;11.946;2023-06-26T02:40:29;3.27;;;2.50;;
13439;SDS011;6792;57.698;11.946;2023-06-26T02:42:59;6.08;;;2.72;;
13439;SDS011;6792;57.698;11.946;2023-06-26T02:45:28;2.75;;;2.40;;
13439;SDS011;6792;57.698;11.946;2023-06-26T02:47:57;4.95;;;2.90;;
13439;SDS011;6792;57.698;11.946;2023-06-26T02:50:26;2.50;;;2.30;;
13439;SDS011;6792;57.698;11.946;2023-06-26T02:52:56;3.20;;;2.50;;
13439;SDS011;6792;57.698;11.946;2023-06-26T02:55:25;2.90;;;2.60;;
13439;SDS011;6792;57.698;11.946;2023-06-26T02:57:55;3.35;;;2.37;;
13439;SDS011;6792;57.698;11.946;2023-06-26T03:00:24;3.47;;;2.30;;
13439;SDS011;6792;57.698;11.946;2023-06-26T03:02:55;3.05;;;2.50;;
13439;SDS011;6792;57.698;11.946;2023-06-26T03:05:25;2.65;;;2.45;;
13439;SDS011;6792;57.698;11.946;2023-06-26T03:07:54;3.80;;;2.98;;
13439;SDS011;6792;57.698;11.946;2023-06-26T03:10:23;4.12;;;2.42;;
13439;SDS011;6792;57.698;11.946;2023-06-26T03:12:52;3.42;;;2.40;;
13439;SDS011;6792;57.698;11.946;2023-06-26T03:15:22;3.02;;;2.75;;
13439;SDS011;6792;57.698;11.946;2023-06-26T03:17:51;3.40;;;2.27;;
13439;SDS011;6792;57.698;11.946;2023-06-26T03:20:20;3.83;;;2.58;;
13439;SDS011;6792;57.698;11.946;2023-06-26T03:22:49;4.97;;;2.17;;
13439;SDS011;6792;57.698;11.946;2023-06-26T03:25:19;4.12;;;2.30;;
13439;SDS011;6792;57.698;11.946;2023-06-26T03:27:48;3.62;;;2.33;;
13439;SDS011;6792;57.698;11.946;2023-06-26T03:30:17;3.55;;;2.52;;
13439;SDS011;6792;57.698;11.946;2023-06-26T03:32:47;3.92;;;2.60;;
13439;SDS011;6792;57.698;11.946;2023-06-26T03:35:16;4.72;;;2.40;;
13439;SDS011;6792;57.698;11.946;2023-06-26T03:37:45;4.97;;;3.00;;
13439;SDS011;6792;57.698;11.946;2023-06-26T03:40:16;4.03;;;2.65;;
13439;SDS011;6792;57.698;11.946;2023-06-26T03:42:45;3.00;;;2.50;;
13439;SDS011;6792;57.698;11.946;2023-06-26T03:45:14;2.98;;;2.72;;
13439;SDS011;6792;57.698;11.946;2023-06-26T03:47:44;3.08;;;2.52;;
13439;SDS011;6792;57.698;11.946;2023-06-26T03:50:16;3.70;;;2.75;;
13439;SDS011;6792;57.698;11.946;2023-06-26T03:52:45;2.90;;;2.47;;
13439;SDS011;6792;57.698;11.946;2023-06-26T03:55:17;5.20;;;3.00;;
13439;SDS011;6792;57.698;11.946;2023-06-26T03:57:47;3.90;;;2.80;;
13439;SDS011;6792;57.698;11.946;2023-06-26T04:00:17;4.25;;;2.55;;
13439;SDS011;6792;57.698;11.946;2023-06-26T04:02:46;4.33;;;2.80;;
13439;SDS011;6792;57.698;11.946;2023-06-26T04:05:17;3.30;;;2.50;;
13439;SDS011;6792;57.698;11.946;2023-06-26T04:07:49;4.35;;;2.98;;
13439;SDS011;6792;57.698;11.946;2023-06-26T04:10:19;2.77;;;2.52;;
13439;SDS011;6792;57.698;11.946;2023-06-26T04:12:48;3.65;;;2.62;;
13439;SDS011;6792;57.698;11.946;2023-06-26T04:15:18;3.10;;;2.62;;
13439;SDS011;6792;57.698;11.946;2023-06-26T04:17:47;10.18;;;2.70;;
13439;SDS011;6792;57.698;11.946;2023-06-26T04:20:16;4.83;;;2.62;;
13439;SDS011;6792;57.698;11.946;2023-06-26T04:22:46;4.15;;;2.90;;
13439;SDS011;6792;57.698;11.946;2023-06-26T04:25:15;5.30;;;2.58;;
13439;SDS011;6792;57.698;11.946;2023-06-26T04:27:44;4.97;;;2.62;;
13439;SDS011;6792;57.698;11.946;2023-06-26T04:30:14;3.98;;;2.47;;
13439;SDS011;6792;57.698;11.946;2023-06-26T04:32:44;2.52;;;2.33;;
13439;SDS011;6792;57.698;11.946;2023-06-26T04:35:14;4.65;;;2.33;;
13439;SDS011;6792;57.698;11.946;2023-06-26T04:37:44;4.22;;;2.55;;
13439;SDS011;6792;57.698;11.946;2023-06-26T04:40:13;3.20;;;2.77;;
13439;SDS011;6792;57.698;11.946;2023-06-26T04:42:43;2.72;;;2.17;;
13439;SDS011;6792;57.698;11.946;2023-06-26T04:45:12;4.08;;;2.52;;
13439;SDS011;6792;57.698;11.946;2023-06-26T04:47:41;3.50;;;2.55;;
13439;SDS011;6792;57.698;11.946;2023-06-26T04:50:11;2.98;;;2.65;;
13439;SDS011;6792;57.698;11.946;2023-06-26T04:52:43;4.30;;;2.67;;
13439;SDS011;6792;57.698;11.946;2023-06-26T04:55:13;4.33;;;2.65;;
13439;SDS011;6792;57.698;11.946;2023-06-26T04:57:42;5.22;;;2.50;;
13439;SDS011;6792;57.698;11.946;2023-06-26T05:00:15;3.70;;;2.60;;
13439;SDS011;6792;57.698;11.946;2023-06-26T05:02:45;4.03;;;2.70;;
13439;SDS011;6792;57.698;11.946;2023-06-26T05:05:14;5.85;;;3.00;;
13439;SDS011;6792;57.698;11.946;2023-06-26T05:07:44;4.75;;;2.95;;
13439;SDS011;6792;57.698;11.946;2023-06-26T05:10:13;6.60;;;2.70;;
13439;SDS011;6792;57.698;11.946;2023-06-26T05:12:43;4.33;;;2.55;;
13439;SDS011;6792;57.698;11.946;2023-06-26T05:15:13;7.85;;;2.62;;
13439;SDS011;6792;57.698;11.946;2023-06-26T05:17:42;3.62;;;2.45;;
13439;SDS011;6792;57.698;11.946;2023-06-26T05:20:11;5.55;;;2.60;;
13439;SDS011;6792;57.698;11.946;2023-06-26T05:22:40;2.80;;;2.33;;
13439;SDS011;6792;57.698;11.946;2023-06-26T05:25:10;2.30;;;2.08;;
13439;SDS011;6792;57.698;11.946;2023-06-26T05:27:41;3.02;;;2.58;;
13439;SDS011;6792;57.698;11.946;2023-06-26T05:30:13;2.60;;;2.25;;
13439;SDS011;6792;57.698;11.946;2023-06-26T05:32:43;2.98;;;2.40;;
13439;SDS011;6792;57.698;11.946;2023-06-26T05:35:14;2.72;;;2.20;;
13439;SDS011;6792;57.698;11.946;2023-06-26T05:37:45;2.30;;;2.10;;
13439;SDS011;6792;57.698;11.946;2023-06-26T05:40:17;2.77;;;2.27;;
13439;SDS011;6792;57.698;11.946;2023-06-26T05:42:48;3.27;;;2.40;;
13439;SDS011;6792;57.698;11.946;2023-06-26T05:45:18;2.45;;;2.25;;
13439;SDS011;6792;57.698;11.946;2023-06-26T05:47:47;5.17;;;2.27;;
13439;SDS011;6792;57.698;11.946;2023-06-26T05:50:18;4.25;;;2.60;;
13439;SDS011;6792;57.698;11.946;2023-06-26T05:52:49;4.05;;;2.83;;
13439;SDS011;6792;57.698;11.946;2023-06-26T05:55:20;3.15;;;2.42;;
13439;SDS011;6792;57.698;11.946;2023-06-26T05:57:50;3.37;;;1.70;;
13439;SDS011;6792;57.698;11.946;2023-06-26T06:00:21;11.10;;;2.83;;
13439;SDS011;6792;57.698;11.946;2023-06-26T06:02:52;4.75;;;2.25;;
13439;SDS011;6792;57.698;11.946;2023-06-26T06:05:22;2.75;;;1.90;;
13439;SDS011;6792;57.698;11.946;2023-06-26T06:07:51;2.10;;;1.60;;
13439;SDS011;6792;57.698;11.946;2023-06-26T06:10:20;1.60;;;1.50;;
13439;SDS011;6792;57.698;11.946;2023-06-26T06:12:50;1.82;;;1.67;;
13439;SDS011;6792;57.698;11.946;2023-06-26T06:15:21;3.72;;;1.72;;
13439;SDS011;6792;57.698;11.946;2023-06-26T06:17:50;2.87;;;1.98;;
13439;SDS011;6792;57.698;11.946;2023-06-26T06:20:19;4.20;;;1.98;;
13439;SDS011;6792;57.698;11.946;2023-06-26T06:22:48;1.62;;;1.52;;
13439;SDS011;6792;57.698;11.946;2023-06-26T06:25:18;2.58;;;1.65;;
13439;SDS011;6792;57.698;11.946;2023-06-26T06:27:47;2.80;;;1.52;;
13439;SDS011;6792;57.698;11.946;2023-06-26T06:30:16;2.10;;;1.42;;
13439;SDS011;6792;57.698;11.946;2023-06-26T06:32:45;1.67;;;1.50;;
13439;SDS011;6792;57.698;11.946;2023-06-26T06:35:17;1.72;;;1.62;;
13439;SDS011;6792;57.698;11.946;2023-06-26T06:37:46;1.80;;;1.70;;
13439;SDS011;6792;57.698;11.946;2023-06-26T06:40:16;1.62;;;1.52;;
13439;SDS011;6792;57.698;11.946;2023-06-26T06:42:45;3.70;;;1.55;;
13439;SDS011;6792;57.698;11.946;2023-06-26T06:45:14;1.62;;;1.50;;
13439;SDS011;6792;57.698;11.946;2023-06-26T06:47:43;2.30;;;1.50;;
13439;SDS011;6792;57.698;11.946;2023-06-26T06:50:13;1.37;;;1.20;;
13439;SDS011;6792;57.698;11.946;2023-06-26T06:52:43;3.90;;;1.67;;
13439;SDS011;6792;57.698;11.946;2023-06-26T06:55:12;1.55;;;1.37;;
13439;SDS011;6792;57.698;11.946;2023-06-26T06:57:42;1.98;;;1.42;;
13439;SDS011;6792;57.698;11.946;2023-06-26T07:00:12;2.75;;;1.42;;
13439;SDS011;6792;57.698;11.946;2023-06-26T07:02:43;2.22;;;1.50;;
13439;SDS011;6792;57.698;11.946;2023-06-26T07:05:13;1.55;;;1.45;;
13439;SDS011;6792;57.698;11.946;2023-06-26T07:07:44;3.62;;;1.80;;
13439;SDS011;6792;57.698;11.946;2023-06-26T07:10:13;3.35;;;1.75;;
13439;SDS011;6792;57.698;11.946;2023-06-26T07:12:42;1.85;;;1.45;;
13439;SDS011;6792;57.698;11.946;2023-06-26T07:15:13;2.75;;;1.67;;
13439;SDS011;6792;57.698;11.946;2023-06-26T07:17:42;2.17;;;1.37;;
13439;SDS011;6792;57.698;11.946;2023-06-26T07:20:12;2.20;;;1.87;;
13439;SDS011;6792;57.698;11.946;2023-06-26T07:22:43;5.20;;;2.00;;
13439;SDS011;6792;57.698;11.946;2023-06-26T07:25:13;2.83;;;1.80;;
13439;SDS011;6792;57.698;11.946;2023-06-26T07:27:43;4.65;;;1.65;;
13439;SDS011;6792;57.698;11.946;2023-06-26T07:30:12;2.60;;;2.17;;
13439;SDS011;6792;57.698;11.946;2023-06-26T07:32:41;4.25;;;2.47;;
13439;SDS011;6792;57.698;11.946;2023-06-26T07:35:12;2.80;;;2.40;;
13439;SDS011;6792;57.698;11.946;2023-06-26T07:37:43;2.58;;;2.00;;
13439;SDS011;6792;57.698;11.946;2023-06-26T07:40:12;2.33;;;2.00;;
13439;SDS011;6792;57.698;11.946;2023-06-26T07:45:25;3.37;;;2.30;;
13439;SDS011;6792;57.698;11.946;2023-06-26T07:47:54;2.92;;;2.58;;
13439;SDS011;6792;57.698;11.946;2023-06-26T07:50:23;2.60;;;2.22;;
13439;SDS011;6792;57.698;11.946;2023-06-26T07:52:53;4.60;;;2.87;;
13439;SDS011;6792;57.698;11.946;2023-06-26T07:55:22;4.55;;;2.80;;
13439;SDS011;6792;57.698;11.946;2023-06-26T07:57:52;3.87;;;3.25;;
13439;SDS011;6792;57.698;11.946;2023-06-26T08:00:22;3.33;;;2.90;;
13439;SDS011;6792;57.698;11.946;2023-06-26T08:02:52;3.35;;;2.90;;
13439;SDS011;6792;57.698;11.946;2023-06-26T08:05:22;4.20;;;2.55;;
13439;SDS011;6792;57.698;11.946;2023-06-26T08:07:51;2.92;;;2.62;;
13439;SDS011;6792;57.698;11.946;2023-06-26T08:10:20;3.25;;;2.52;;
13439;SDS011;6792;57.698;11.946;2023-06-26T08:12:49;3.08;;;2.72;;
13439;SDS011;6792;57.698;11.946;2023-06-26T08:15:19;3.30;;;2.98;;
13439;SDS011;6792;57.698;11.946;2023-06-26T08:17:48;3.25;;;2.95;;
13439;SDS011;6792;57.698;11.946;2023-06-26T08:20:17;3.67;;;3.02;;
13439;SDS011;6792;57.698;11.946;2023-06-26T08:22:46;3.87;;;2.50;;
13439;SDS011;6792;57.698;11.946;2023-06-26T08:25:17;3.98;;;2.22;;
13439;SDS011;6792;57.698;11.946;2023-06-26T08:27:47;2.45;;;2.25;;
13439;SDS011;6792;57.698;11.946;2023-06-26T08:30:17;3.95;;;2.33;;
13439;SDS011;6792;57.698;11.946;2023-06-26T08:32:47;2.77;;;2.00;;
13439;SDS011;6792;57.698;11.946;2023-06-26T08:35:17;2.50;;;2.30;;
13439;SDS011;6792;57.698;11.946;2023-06-26T08:37:47;2.67;;;2.40;;
13439;SDS011;6792;57.698;11.946;2023-06-26T08:40:17;2.37;;;2.17;;
13439;SDS011;6792;57.698;11.946;2023-06-26T08:42:46;2.87;;;2.40;;
13439;SDS011;6792;57.698;11.946;2023-06-26T08:45:19;4.00;;;2.47;;
13439;SDS011;6792;57.698;11.946;2023-06-26T08:47:48;3.87;;;2.27;;
13439;SDS011;6792;57.698;11.946;2023-06-26T08:50:21;4.47;;;2.65;;
13439;SDS011;6792;57.698;11.946;2023-06-26T08:52:56;4.83;;;2.30;;
13439;SDS011;6792;57.698;11.946;2023-06-26T08:55:26;2.52;;;1.82;;
13439;SDS011;6792;57.698;11.946;2023-06-26T08:57:58;2.67;;;2.10;;
13439;SDS011;6792;57.698;11.946;2023-06-26T09:00:28;2.87;;;2.15;;
13439;SDS011;6792;57.698;11.946;2023-06-26T09:02:57;4.55;;;3.33;;
13439;SDS011;6792;57.698;11.946;2023-06-26T09:05:27;2.62;;;2.42;;
13439;SDS011;6792;57.698;11.946;2023-06-26T09:07:58;2.70;;;2.50;;
13439;SDS011;6792;57.698;11.946;2023-06-26T09:10:27;2.50;;;2.30;;
13439;SDS011;6792;57.698;11.946;2023-06-26T09:13:00;2.45;;;2.25;;
13439;SDS011;6792;57.698;11.946;2023-06-26T09:15:37;2.17;;;2.08;;
13439;SDS011;6792;57.698;11.946;2023-06-26T09:18:06;3.08;;;2.17;;
13439;SDS011;6792;57.698;11.946;2023-06-26T09:20:36;3.15;;;2.22;;
13439;SDS011;6792;57.698;11.946;2023-06-26T09:23:06;2.65;;;2.17;;
13439;SDS011;6792;57.698;11.946;2023-06-26T09:25:38;3.75;;;2.50;;
13439;SDS011;6792;57.698;11.946;2023-06-26T09:28:08;3.55;;;2.50;;
13439;SDS011;6792;57.698;11.946;2023-06-26T09:30:38;5.92;;;2.72;;
13439;SDS011;6792;57.698;11.946;2023-06-26T09:33:13;5.17;;;2.98;;
13439;SDS011;6792;57.698;11.946;2023-06-26T09:35:43;2.65;;;2.45;;
13439;SDS011;6792;57.698;11.946;2023-06-26T09:38:13;6.08;;;2.55;;
13439;SDS011;6792;57.698;11.946;2023-06-26T09:40:44;6.33;;;2.70;;
13439;SDS011;6792;57.698;11.946;2023-06-26T09:43:13;3.80;;;2.50;;
13439;SDS011;6792;57.698;11.946;2023-06-26T09:45:42;5.45;;;2.62;;
13439;SDS011;6792;57.698;11.946;2023-06-26T09:48:12;2.62;;;2.42;;
13439;SDS011;6792;57.698;11.946;2023-06-26T09:50:44;5.53;;;2.58;;
13439;SDS011;6792;57.698;11.946;2023-06-26T09:53:13;3.20;;;2.40;;
13439;SDS011;6792;57.698;11.946;2023-06-26T09:55:45;2.87;;;2.60;;
13439;SDS011;6792;57.698;11.946;2023-06-26T09:58:14;3.90;;;2.60;;
13439;SDS011;6792;57.698;11.946;2023-06-26T10:00:44;5.00;;;2.42;;
13439;SDS011;6792;57.698;11.946;2023-06-26T10:03:14;3.55;;;3.05;;
13439;SDS011;6792;57.698;11.946;2023-06-26T10:05:43;3.83;;;3.00;;
13439;SDS011;6792;57.698;11.946;2023-06-26T10:08:14;7.80;;;2.55;;
13439;SDS011;6792;57.698;11.946;2023-06-26T10:10:44;5.37;;;2.25;;
13439;SDS011;6792;57.698;11.946;2023-06-26T10:13:18;3.35;;;2.40;;
13439;SDS011;6792;57.698;11.946;2023-06-26T10:15:48;7.72;;;2.95;;
13439;SDS011;6792;57.698;11.946;2023-06-26T10:18:19;3.25;;;2.67;;
13439;SDS011;6792;57.698;11.946;2023-06-26T10:20:51;3.47;;;2.58;;
13439;SDS011;6792;57.698;11.946;2023-06-26T10:23:25;3.25;;;2.58;;
13439;SDS011;6792;57.698;11.946;2023-06-26T10:25:55;6.60;;;2.47;;
13439;SDS011;6792;57.698;11.946;2023-06-26T10:28:28;2.85;;;2.65;;
13439;SDS011;6792;57.698;11.946;2023-06-26T10:30:59;2.33;;;2.12;;
13439;SDS011;6792;57.698;11.946;2023-06-26T10:33:31;2.85;;;2.30;;
13439;SDS011;6792;57.698;11.946;2023-06-26T10:36:14;5.50;;;2.52;;
13439;SDS011;6792;57.698;11.946;2023-06-26T10:38:51;2.52;;;2.33;;
13439;SDS011;6792;57.698;11.946;2023-06-26T10:41:24;3.85;;;2.10;;
13439;SDS011;6792;57.698;11.946;2023-06-26T10:44:06;2.47;;;2.17;;
13439;SDS011;6792;57.698;11.946;2023-06-26T10:46:48;3.12;;;2.37;;
13439;SDS011;6792;57.698;11.946;2023-06-26T10:49:20;3.52;;;2.33;;
13439;SDS011;6792;57.698;11.946;2023-06-26T10:51:51;3.92;;;2.20;;
13439;SDS011;6792;57.698;11.946;2023-06-26T10:54:22;3.33;;;2.20;;
13439;SDS011;6792;57.698;11.946;2023-06-26T10:56:54;3.33;;;2.35;;
13439;SDS011;6792;57.698;11.946;2023-06-26T10:59:24;2.60;;;2.08;;
13439;SDS011;6792;57.698;11.946;2023-06-26T11:01:55;3.47;;;2.55;;
13439;SDS011;6792;57.698;11.946;2023-06-26T11:04:36;2.08;;;1.98;;
13439;SDS011;6792;57.698;11.946;2023-06-26T11:07:18;3.83;;;2.08;;
13439;SDS011;6792;57.698;11.946;2023-06-26T11:09:55;5.97;;;2.45;;
13439;SDS011;6792;57.698;11.946;2023-06-26T11:12:38;3.98;;;2.60;;
13439;SDS011;6792;57.698;11.946;2023-06-26T11:15:09;2.40;;;2.20;;
13439;SDS011;6792;57.698;11.946;2023-06-26T11:17:42;2.72;;;2.02;;
13439;SDS011;6792;57.698;11.946;2023-06-26T11:20:13;2.83;;;2.55;;
13439;SDS011;6792;57.698;11.946;2023-06-26T11:22:44;2.30;;;2.10;;
13439;SDS011;6792;57.698;11.946;2023-06-26T11:25:14;2.70;;;2.50;;
13439;SDS011;6792;57.698;11.946;2023-06-26T11:27:43;2.65;;;2.27;;
13439;SDS011;6792;57.698;11.946;2023-06-26T11:30:22;3.08;;;2.55;;
13439;SDS011;6792;57.698;11.946;2023-06-26T11:32:51;5.95;;;2.67;;
13439;SDS011;6792;57.698;11.946;2023-06-26T11:35:22;3.65;;;2.40;;
13439;SDS011;6792;57.698;11.946;2023-06-26T11:37:55;3.85;;;2.45;;
13439;SDS011;6792;57.698;11.946;2023-06-26T11:40:28;2.95;;;2.00;;
13439;SDS011;6792;57.698;11.946;2023-06-26T11:42:58;2.30;;;2.10;;
13439;SDS011;6792;57.698;11.946;2023-06-26T11:45:30;2.52;;;2.10;;
13439;SDS011;6792;57.698;11.946;2023-06-26T11:48:01;5.62;;;2.25;;
13439;SDS011;6792;57.698;11.946;2023-06-26T11:50:31;2.62;;;2.10;;
13439;SDS011;6792;57.698;11.946;2023-06-26T11:53:02;2.20;;;2.00;;
13439;SDS011;6792;57.698;11.946;2023-06-26T11:55:40;2.62;;;2.33;;
13439;SDS011;6792;57.698;11.946;2023-06-26T11:58:10;2.98;;;2.27;;
13439;SDS011;6792;57.698;11.946;2023-06-26T12:00:41;2.45;;;2.25;;
13439;SDS011;6792;57.698;11.946;2023-06-26T12:03:11;2.30;;;2.10;;
13439;SDS011;6792;57.698;11.946;2023-06-26T12:05:42;7.75;;;2.60;;
13439;SDS011;6792;57.698;11.946;2023-06-26T12:08:11;2.42;;;2.10;;
13439;SDS011;6792;57.698;11.946;2023-06-26T12:10:41;3.45;;;2.72;;
13439;SDS011;6792;57.698;11.946;2023-06-26T12:13:11;3.05;;;2.40;;
13439;SDS011;6792;57.698;11.946;2023-06-26T12:15:41;4.37;;;2.30;;
13439;SDS011;6792;57.698;11.946;2023-06-26T12:18:10;3.25;;;2.20;;
13439;SDS011;6792;57.698;11.946;2023-06-26T12:20:40;2.45;;;2.25;;
13439;SDS011;6792;57.698;11.946;2023-06-26T12:23:13;3.35;;;2.00;;
13439;SDS011;6792;57.698;11.946;2023-06-26T12:25:42;2.33;;;2.12;;
13439;SDS011;6792;57.698;11.946;2023-06-26T12:28:17;2.98;;;2.10;;
13439;SDS011;6792;57.698;11.946;2023-06-26T12:30:47;3.40;;;2.20;;
13439;SDS011;6792;57.698;11.946;2023-06-26T12:33:35;3.37;;;2.20;;
13439;SDS011;6792;57.698;11.946;2023-06-26T12:36:05;4.22;;;1.98;;
13439;SDS011;6792;57.698;11.946;2023-06-26T12:38:39;5.00;;;2.47;;
13439;SDS011;6792;57.698;11.946;2023-06-26T12:41:12;7.75;;;2.47;;
13439;SDS011;6792;57.698;11.946;2023-06-26T12:43:42;4.05;;;2.12;;
13439;SDS011;6792;57.698;11.946;2023-06-26T12:46:11;3.60;;;2.17;;
13439;SDS011;6792;57.698;11.946;2023-06-26T12:48:41;3.83;;;2.70;;
13439;SDS011;6792;57.698;11.946;2023-06-26T12:51:14;3.60;;;2.62;;
13439;SDS011;6792;57.698;11.946;2023-06-26T12:53:44;2.67;;;2.47;;
13439;SDS011;6792;57.698;11.946;2023-06-26T12:56:13;3.90;;;3.00;;
13439;SDS011;6792;57.698;11.946;2023-06-26T12:58:43;3.92;;;2.20;;
13439;SDS011;6792;57.698;11.946;2023-06-26T13:01:13;4.70;;;2.37;;
13439;SDS011;6792;57.698;11.946;2023-06-26T13:03:43;3.65;;;2.40;;
13439;SDS011;6792;57.698;11.946;2023-06-26T13:06:12;2.65;;;2.33;;
13439;SDS011;6792;57.698;11.946;2023-06-26T13:08:41;4.25;;;3.08;;
13439;SDS011;6792;57.698;11.946;2023-06-26T13:11:10;4.20;;;2.80;;
13439;SDS011;6792;57.698;11.946;2023-06-26T13:13:41;3.27;;;2.65;;
13439;SDS011;6792;57.698;11.946;2023-06-26T13:16:11;3.62;;;2.98;;
13439;SDS011;6792;57.698;11.946;2023-06-26T13:18:40;3.45;;;3.15;;
13439;SDS011;6792;57.698;11.946;2023-06-26T13:21:09;3.17;;;2.70;;
13439;SDS011;6792;57.698;11.946;2023-06-26T13:23:39;3.30;;;3.00;;
13439;SDS011;6792;57.698;11.946;2023-06-26T13:26:08;3.55;;;3.25;;
13439;SDS011;6792;57.698;11.946;2023-06-26T13:28:38;5.45;;;3.15;;
13439;SDS011;6792;57.698;11.946;2023-06-26T13:31:07;3.33;;;3.02;;
13439;SDS011;6792;57.698;11.946;2023-06-26T13:33:37;3.12;;;2.92;;
13439;SDS011;6792;57.698;11.946;2023-06-26T13:36:06;3.30;;;2.98;;
13439;SDS011;6792;57.698;11.946;2023-06-26T13:38:35;3.10;;;2.87;;
13439;SDS011;6792;57.698;11.946;2023-06-26T13:41:04;6.50;;;3.27;;
13439;SDS011;6792;57.698;11.946;2023-06-26T13:43:34;3.30;;;3.00;;
13439;SDS011;6792;57.698;11.946;2023-06-26T13:46:04;4.37;;;3.35;;
13439;SDS011;6792;57.698;11.946;2023-06-26T13:48:33;3.30;;;3.00;;
13439;SDS011;6792;57.698;11.946;2023-06-26T13:51:03;6.30;;;2.60;;
13439;SDS011;6792;57.698;11.946;2023-06-26T13:53:32;5.25;;;2.20;;
13439;SDS011;6792;57.698;11.946;2023-06-26T13:56:02;7.92;;;3.20;;
13439;SDS011;6792;57.698;11.946;2023-06-26T13:58:34;8.60;;;2.50;;
13439;SDS011;6792;57.698;11.946;2023-06-26T14:01:05;7.42;;;2.12;;
13439;SDS011;6792;57.698;11.946;2023-06-26T14:03:34;9.05;;;2.55;;
13439;SDS011;6792;57.698;11.946;2023-06-26T14:06:04;4.97;;;2.62;;
13439;SDS011;6792;57.698;11.946;2023-06-26T14:08:33;3.95;;;2.40;;
13439;SDS011;6792;57.698;11.946;2023-06-26T14:11:02;8.28;;;2.45;;
13439;SDS011;6792;57.698;11.946;2023-06-26T14:13:31;4.25;;;2.30;;
13439;SDS011;6792;57.698;11.946;2023-06-26T14:16:01;5.47;;;2.33;;
13439;SDS011;6792;57.698;11.946;2023-06-26T14:18:31;2.85;;;2.08;;
13439;SDS011;6792;57.698;11.946;2023-06-26T14:21:01;7.80;;;2.33;;
13439;SDS011;6792;57.698;11.946;2023-06-26T14:23:31;4.97;;;1.85;;
13439;SDS011;6792;57.698;11.946;2023-06-26T14:26:00;5.00;;;2.20;;
13439;SDS011;6792;57.698;11.946;2023-06-26T14:28:29;5.70;;;2.15;;
13439;SDS011;6792;57.698;11.946;2023-06-26T14:30:59;4.97;;;2.42;;
13439;SDS011;6792;57.698;11.946;2023-06-26T14:33:28;8.18;;;2.52;;
13439;SDS011;6792;57.698;11.946;2023-06-26T14:35:58;6.62;;;2.95;;
13439;SDS011;6792;57.698;11.946;2023-06-26T14:38:27;12.00;;;3.52;;
13439;SDS011;6792;57.698;11.946;2023-06-26T14:40:56;10.28;;;3.58;;
13439;SDS011;6792;57.698;11.946;2023-06-26T14:43:26;9.80;;;3.25;;
13439;SDS011;6792;57.698;11.946;2023-06-26T14:45:55;9.28;;;3.37;;
13439;SDS011;6792;57.698;11.946;2023-06-26T14:48:24;9.40;;;3.42;;
13439;SDS011;6792;57.698;11.946;2023-06-26T14:50:53;6.80;;;3.00;;
13439;SDS011;6792;57.698;11.946;2023-06-26T14:53:22;6.95;;;2.90;;
13439;SDS011;6792;57.698;11.946;2023-06-26T14:55:52;6.65;;;2.70;;
13439;SDS011;6792;57.698;11.946;2023-06-26T14:58:22;5.37;;;2.25;;
13439;SDS011;6792;57.698;11.946;2023-06-26T15:00:51;9.18;;;2.95;;
13439;SDS011;6792;57.698;11.946;2023-06-26T15:03:20;12.55;;;3.08;;
13439;SDS011;6792;57.698;11.946;2023-06-26T15:05:49;4.95;;;2.37;;
13439;SDS011;6792;57.698;11.946;2023-06-26T15:08:19;8.63;;;2.65;;
13439;SDS011;6792;57.698;11.946;2023-06-26T15:10:48;8.00;;;2.70;;